الصفحة الرئيسية
METAR-TAF:

METAR-TAF

مطار :

Mount Gambier, أستراليا

دائرة عرض: 37-44-44S, خط طول: 140-47-07E, ارتفاع: 65 متر

مراقبة الطقس الحالي

تاريخ ووقت الإصدار 1ساعة و 9 دقيقة قبل الساعة 19:00UTC
ريح 8 عقدة من الشمال/الشمال الشرقي
درجة الحرارة 5°درجة مئوية
الرطوبة 100%
ضغط 1022 hPa
الرؤية 10 كم أو أكثر

METAR: YMTG 251900Z AUTO 03008KT 9999 // NCD 05/05 Q1022

زمن: 05:39 (20:09 UTC)


TAF: مفقودة

أرصاد الطقس والتوقعات من أكثر من 4000 مطار (تقارير الطقس للمطار METAR والتنبؤ بالطقس بالمطارTAF).

المحطات المتاحة هي النقط الصفراء والحمراء على الخريطة.

حرك المؤشر فوق النقطة لمعرفة اسم المحطة.

ثم انقر لمعرفة أرصاد وتوقعات الطقس.

لتغيير الخارطة: اضغط على الأزرار الخضراء مع رمز الصليب الأسود للتكبير. على الزر الأخضر مع شرطة للتصغير، أو على الأسهم الخضراء للخرائط المجاورة.


METAR-TAF: